createdAt,value
2022-08-30T00:00:28.516Z,64.7
2022-08-30T00:01:28.558Z,64.6
2022-08-30T00:02:30.697Z,65.4
2022-08-30T00:03:28.818Z,66.3
2022-08-30T00:04:28.585Z,67.2
2022-08-30T00:05:28.585Z,67.5
2022-08-30T00:06:28.574Z,67.8
2022-08-30T00:07:28.688Z,68
2022-08-30T00:08:28.510Z,68
2022-08-30T00:09:28.601Z,68
2022-08-30T00:10:28.586Z,68.4
2022-08-30T00:11:28.521Z,68.5
2022-08-30T00:12:28.533Z,67.6
2022-08-30T00:13:28.622Z,68.5
2022-08-30T00:14:28.533Z,69.1
2022-08-30T00:15:28.606Z,69.5
2022-08-30T00:16:28.663Z,69.7
2022-08-30T00:17:28.650Z,69.3
2022-08-30T00:18:28.558Z,70.1
2022-08-30T00:19:28.511Z,70.3
2022-08-30T00:20:28.560Z,70.9
2022-08-30T00:21:28.586Z,71
2022-08-30T00:22:28.582Z,71.1
2022-08-30T00:23:28.545Z,71.4
2022-08-30T00:24:28.696Z,71.2
2022-08-30T00:25:28.593Z,71.4
2022-08-30T00:26:28.599Z,72.3
2022-08-30T00:27:28.612Z,72
2022-08-30T00:28:28.618Z,71.7
2022-08-30T00:29:28.527Z,71.9
2022-08-30T00:30:28.624Z,72.4
2022-08-30T00:31:28.571Z,71.8
2022-08-30T00:32:28.525Z,72.7
2022-08-30T00:33:28.548Z,73.5
2022-08-30T00:34:28.742Z,73.4
2022-08-30T00:35:28.580Z,73.3
2022-08-30T00:36:28.522Z,75.2
2022-08-30T00:37:28.664Z,74.5
2022-08-30T00:38:28.533Z,75.3
2022-08-30T00:39:28.601Z,75.1
2022-08-30T00:40:28.745Z,75.3
2022-08-30T00:41:28.602Z,76.2
2022-08-30T00:42:28.623Z,76.6
2022-08-30T00:43:28.613Z,77
2022-08-30T00:44:28.619Z,77
2022-08-30T00:45:28.623Z,76.7
2022-08-30T00:46:28.749Z,76.8
2022-08-30T00:47:28.531Z,76.8
2022-08-30T00:48:28.536Z,76.6
2022-08-30T00:49:28.511Z,77.3
2022-08-30T00:50:28.533Z,77.8
2022-08-30T00:51:28.666Z,77.9
2022-08-30T00:52:28.573Z,77.8
2022-08-30T00:53:28.589Z,77.6
2022-08-30T00:54:28.588Z,76.5
2022-08-30T00:55:28.587Z,77.4
2022-08-30T00:56:28.588Z,77.8
2022-08-30T00:57:28.613Z,76.7
2022-08-30T00:58:28.624Z,76.6
2022-08-30T00:59:28.620Z,76.9
2022-08-30T01:00:28.623Z,77.4
2022-08-30T01:01:28.626Z,76.5
2022-08-30T01:02:28.575Z,76.1
2022-08-30T01:03:28.512Z,76.2
2022-08-30T01:04:28.651Z,76.1
2022-08-30T01:05:28.658Z,75
2022-08-30T01:06:32.679Z,74.9
2022-08-30T01:07:28.568Z,75.3
2022-08-30T01:08:28.528Z,74.2
2022-08-30T01:09:30.593Z,74.7
2022-08-30T01:10:28.636Z,75.4
2022-08-30T01:11:28.578Z,75.3
2022-08-30T01:12:28.581Z,76.8
2022-08-30T01:13:28.515Z,77.7
2022-08-30T01:14:28.613Z,77.7
2022-08-30T01:15:28.599Z,76
2022-08-30T01:16:28.533Z,75.2
2022-08-30T01:17:28.630Z,74.6
2022-08-30T01:18:28.626Z,74.3
2022-08-30T01:19:28.535Z,75.2
2022-08-30T01:20:28.558Z,73.4
2022-08-30T01:21:28.558Z,72
2022-08-30T01:22:28.605Z,73.8
2022-08-30T01:23:28.659Z,73.6
2022-08-30T01:24:28.573Z,74.1
2022-08-30T01:25:28.624Z,74.9
2022-08-30T01:26:28.531Z,75.2
2022-08-30T01:27:28.605Z,74.1
2022-08-30T01:28:28.595Z,74.7
2022-08-30T01:29:28.547Z,73.7
2022-08-30T01:30:28.597Z,74.5
2022-08-30T01:31:28.608Z,74.3
2022-08-30T01:32:29.373Z,74.9
2022-08-30T01:33:28.639Z,73.9
2022-08-30T01:34:28.644Z,73.7
2022-08-30T01:35:28.543Z,75
2022-08-30T01:36:28.554Z,73.9
2022-08-30T01:37:28.551Z,74.1
2022-08-30T01:38:28.529Z,74.8
2022-08-30T01:39:28.595Z,75.7
2022-08-30T01:40:28.613Z,74.7
2022-08-30T01:41:28.680Z,73.9
2022-08-30T01:42:28.526Z,72.4
2022-08-30T01:43:28.534Z,73.2
2022-08-30T01:44:28.623Z,72
2022-08-30T01:45:28.620Z,72.6
2022-08-30T01:46:28.661Z,72.4
2022-08-30T01:47:28.612Z,72.1
2022-08-30T01:48:30.919Z,71.4
2022-08-30T01:49:28.629Z,71.7
2022-08-30T01:50:28.551Z,70.4
2022-08-30T01:51:28.675Z,71.4
2022-08-30T01:52:28.638Z,72.9
2022-08-30T01:53:28.662Z,73.1
2022-08-30T01:54:35.922Z,72.6
2022-08-30T01:55:28.557Z,73.9
2022-08-30T01:56:28.548Z,73.8
2022-08-30T01:57:28.530Z,73.4
2022-08-30T01:58:28.589Z,73.7
2022-08-30T01:59:28.601Z,73.9
2022-08-30T02:00:28.591Z,73
2022-08-30T02:01:28.701Z,72.5
2022-08-30T02:02:28.522Z,73.6
2022-08-30T02:03:28.563Z,73.7
2022-08-30T02:04:28.618Z,73.1
2022-08-30T02:05:28.530Z,73.3
2022-08-30T02:06:28.639Z,72.3
2022-08-30T02:07:28.627Z,72.4
2022-08-30T02:08:28.562Z,72.5
2022-08-30T02:09:28.694Z,73.7
2022-08-30T02:10:28.575Z,73.9
2022-08-30T02:11:28.682Z,74
2022-08-30T02:12:28.550Z,74.9
2022-08-30T02:13:28.676Z,75.2
2022-08-30T02:14:28.578Z,75.8
2022-08-30T02:15:28.545Z,76.6
2022-08-30T02:16:30.687Z,75.7
2022-08-30T02:17:28.610Z,76.1
2022-08-30T02:18:28.584Z,75.6
2022-08-30T02:19:28.547Z,76.1
2022-08-30T02:20:28.618Z,76.5
2022-08-30T02:21:28.664Z,76.3
2022-08-30T02:22:28.641Z,77.2
2022-08-30T02:23:28.652Z,78
2022-08-30T02:24:28.652Z,78
2022-08-30T02:25:28.655Z,78.5
2022-08-30T02:26:28.560Z,77.8
2022-08-30T02:27:28.615Z,77.1
2022-08-30T02:28:28.579Z,78.2
2022-08-30T02:29:28.597Z,78.7
2022-08-30T02:30:28.631Z,78.6
2022-08-30T02:31:28.588Z,79
2022-08-30T02:32:28.597Z,78.2
2022-08-30T02:33:28.544Z,80.4
2022-08-30T02:34:28.594Z,81.1
2022-08-30T02:35:28.625Z,80.5
2022-08-30T02:36:28.620Z,80.8
2022-08-30T02:37:28.632Z,81.8
2022-08-30T02:38:28.635Z,82.3
2022-08-30T02:39:28.654Z,83.1
2022-08-30T02:40:28.765Z,83
2022-08-30T02:41:28.654Z,81.3
2022-08-30T02:42:28.543Z,80.4
2022-08-30T02:43:28.531Z,80.1
2022-08-30T02:44:28.575Z,79.8
2022-08-30T02:45:28.568Z,81.9
2022-08-30T02:46:33.146Z,79.8
2022-08-30T02:47:28.542Z,79.3
2022-08-30T02:48:28.708Z,79.3
2022-08-30T02:49:34.061Z,79.8
2022-08-30T02:50:28.619Z,79.1
2022-08-30T02:51:28.624Z,79.4
2022-08-30T02:52:28.620Z,79.6
2022-08-30T02:53:28.625Z,81.1
2022-08-30T02:54:28.637Z,80.3
2022-08-30T02:55:28.650Z,81.9
2022-08-30T02:56:28.560Z,82.2
2022-08-30T02:57:28.533Z,83.6
2022-08-30T02:58:28.564Z,85
2022-08-30T02:59:28.572Z,86.5
2022-08-30T03:00:28.575Z,87.9
2022-08-30T03:01:29.452Z,88.5
2022-08-30T03:02:28.687Z,89.9
2022-08-30T03:03:28.615Z,90.3
2022-08-30T03:04:28.600Z,90.7
2022-08-30T03:05:28.617Z,88.2
2022-08-30T03:06:28.625Z,88.4
2022-08-30T03:07:28.628Z,89.4
2022-08-30T03:08:28.625Z,89.1
2022-08-30T03:09:28.576Z,90.9
2022-08-30T03:10:28.554Z,90.5
2022-08-30T03:11:28.562Z,89.5
2022-08-30T03:12:28.645Z,88.8
2022-08-30T03:13:28.658Z,87.6
2022-08-30T03:14:28.562Z,87.2
2022-08-30T03:15:28.669Z,88.9
2022-08-30T03:16:28.642Z,87.8
2022-08-30T03:17:28.572Z,86.9
2022-08-30T03:18:28.564Z,87.2
2022-08-30T03:19:28.568Z,89.9
2022-08-30T03:20:28.608Z,88.7
2022-08-30T03:21:28.605Z,87.6
2022-08-30T03:22:28.624Z,87.8
2022-08-30T03:23:30.602Z,90.2
2022-08-30T03:24:28.605Z,88.4
2022-08-30T03:25:28.568Z,90.3
2022-08-30T03:26:28.633Z,91.4
2022-08-30T03:27:28.659Z,90.7
2022-08-30T03:28:28.653Z,90.5
2022-08-30T03:29:28.621Z,90.3
2022-08-30T03:30:28.679Z,91.1
2022-08-30T03:31:28.868Z,88.4
2022-08-30T03:32:28.577Z,88.6
2022-08-30T03:33:28.586Z,90.3
2022-08-30T03:34:28.605Z,88.3
2022-08-30T03:35:28.556Z,89.2
2022-08-30T03:36:28.607Z,89.7
2022-08-30T03:37:28.557Z,90.7
2022-08-30T03:38:28.563Z,90.6
2022-08-30T03:39:28.626Z,92.3
2022-08-30T03:40:28.693Z,92.7
2022-08-30T03:41:28.556Z,92.8
2022-08-30T03:42:28.628Z,93.7
2022-08-30T03:43:28.652Z,91.5
2022-08-30T03:44:28.570Z,89.4
2022-08-30T03:45:28.731Z,90
2022-08-30T03:46:28.771Z,89.4
2022-08-30T03:47:28.568Z,91.3
2022-08-30T03:48:28.569Z,92.3
2022-08-30T03:49:28.685Z,91.8
2022-08-30T03:50:28.607Z,93.6
2022-08-30T03:51:28.561Z,94.2
2022-08-30T03:52:28.596Z,95.7
2022-08-30T03:53:28.604Z,95.4
2022-08-30T03:54:28.615Z,95.5
2022-08-30T03:55:28.615Z,95.9
2022-08-30T03:56:28.727Z,95.3
2022-08-30T03:57:28.636Z,95.4
2022-08-30T03:58:28.637Z,94.1
2022-08-30T03:59:28.651Z,93.7
2022-08-30T04:00:28.652Z,94.4
2022-08-30T04:01:28.704Z,95.2
2022-08-30T04:02:28.766Z,92.7
2022-08-30T04:03:28.640Z,91.7
2022-08-30T04:04:28.578Z,91.6
2022-08-30T04:05:28.569Z,92.1
2022-08-30T04:06:28.586Z,90.9
2022-08-30T04:07:28.626Z,89.5
2022-08-30T04:08:28.634Z,89.2
2022-08-30T04:09:28.634Z,87.8
2022-08-30T04:10:28.743Z,87.4
2022-08-30T04:11:28.633Z,87.6
2022-08-30T04:12:28.637Z,87.3
2022-08-30T04:13:28.648Z,86.6
2022-08-30T04:14:28.560Z,87.6
2022-08-30T04:15:28.565Z,90.6
2022-08-30T04:16:28.762Z,91.9
2022-08-30T04:17:28.639Z,94.4
2022-08-30T04:18:28.567Z,92.1
2022-08-30T04:19:28.686Z,92.8
2022-08-30T04:20:28.601Z,93.4
2022-08-30T04:21:28.617Z,92.7
2022-08-30T04:22:28.607Z,91.8
2022-08-30T04:23:28.611Z,93
2022-08-30T04:24:28.718Z,93.4
2022-08-30T04:25:28.628Z,95.1
2022-08-30T04:26:29.402Z,94
2022-08-30T04:27:28.565Z,93.7
2022-08-30T04:28:28.578Z,92.9
2022-08-30T04:29:28.669Z,93.6
2022-08-30T04:30:30.603Z,93
2022-08-30T04:31:28.814Z,93.4
2022-08-30T04:32:28.578Z,93.5
2022-08-30T04:33:28.675Z,93.3
2022-08-30T04:34:28.595Z,91.3
2022-08-30T04:35:28.594Z,92
2022-08-30T04:36:28.597Z,91.9
2022-08-30T04:37:28.708Z,94.7
2022-08-30T04:38:30.564Z,96
2022-08-30T04:39:28.620Z,96.4
2022-08-30T04:40:28.662Z,95.9
2022-08-30T04:41:28.655Z,96.8
2022-08-30T04:42:28.655Z,95.7
2022-08-30T04:43:28.633Z,96
2022-08-30T04:44:28.633Z,97.4
2022-08-30T04:45:28.683Z,95.5
2022-08-30T04:46:28.664Z,94.9
2022-08-30T04:47:28.684Z,95.7
2022-08-30T04:48:28.662Z,94.6
2022-08-30T04:49:28.687Z,94.9
2022-08-30T04:50:28.632Z,95.6
2022-08-30T04:51:28.804Z,97.5
2022-08-30T04:52:28.578Z,98.5
2022-08-30T04:53:28.616Z,98.3
2022-08-30T04:54:28.610Z,96.9
2022-08-30T04:55:28.637Z,99.2
2022-08-30T04:56:28.733Z,97.7
2022-08-30T04:57:28.576Z,97.8
2022-08-30T04:58:28.681Z,98.5
2022-08-30T04:59:28.569Z,97.5
2022-08-30T05:00:28.668Z,98.3
2022-08-30T05:01:28.770Z,99.6
2022-08-30T05:02:28.635Z,99.3
2022-08-30T05:03:28.699Z,99.2
2022-08-30T05:04:28.578Z,99.9
2022-08-30T05:05:28.644Z,99.4
2022-08-30T05:06:28.586Z,98.1
2022-08-30T05:07:28.747Z,97.6
2022-08-30T05:08:28.591Z,98.1
2022-08-30T05:09:28.608Z,98.8
2022-08-30T05:10:28.645Z,98.4
2022-08-30T05:11:28.612Z,99.6
2022-08-30T05:12:28.654Z,98.5
2022-08-30T05:13:35.508Z,97
2022-08-30T05:14:28.684Z,98.8
2022-08-30T05:15:28.653Z,99.1
2022-08-30T05:16:28.689Z,99.3
2022-08-30T05:17:28.603Z,97.5
2022-08-30T05:18:28.581Z,95.9
2022-08-30T05:19:28.682Z,96.1
2022-08-30T05:20:28.688Z,95.3
2022-08-30T05:21:28.695Z,96.2
2022-08-30T05:22:28.595Z,96
2022-08-30T05:23:28.587Z,95.3
2022-08-30T05:24:28.625Z,93.7
2022-08-30T05:25:28.685Z,93.5
2022-08-30T05:26:28.738Z,95.7
2022-08-30T05:27:28.582Z,96.3
2022-08-30T05:28:28.637Z,94.7
2022-08-30T05:29:28.639Z,96
2022-08-30T05:30:28.655Z,95.8
2022-08-30T05:31:28.792Z,96.5
2022-08-30T05:32:28.672Z,97.3
2022-08-30T05:33:28.690Z,97.3
2022-08-30T05:34:28.681Z,96.1
2022-08-30T05:35:28.688Z,98.1
2022-08-30T05:36:28.703Z,97.6
2022-08-30T05:37:30.655Z,97.4
2022-08-30T05:38:28.824Z,96.7
2022-08-30T05:39:28.713Z,97.5
2022-08-30T05:40:29.229Z,98.9
2022-08-30T05:41:28.584Z,97.4
2022-08-30T05:42:28.596Z,95.4
2022-08-30T05:43:30.072Z,96.2
2022-08-30T05:44:28.962Z,94.6
2022-08-30T05:45:28.653Z,91
2022-08-30T05:46:28.748Z,92.8
2022-08-30T05:47:28.678Z,90.6
2022-08-30T05:48:28.989Z,88.5
2022-08-30T05:49:28.672Z,90.7
2022-08-30T05:50:28.682Z,92.8
2022-08-30T05:51:28.709Z,92.6
2022-08-30T05:52:28.593Z,92.4
2022-08-30T05:53:28.708Z,93.8
2022-08-30T05:54:28.591Z,92.8
2022-08-30T05:55:28.601Z,93.5
2022-08-30T05:56:28.629Z,93.9
2022-08-30T05:57:28.628Z,94.5
2022-08-30T05:58:28.635Z,96
2022-08-30T05:59:28.639Z,93.5
2022-08-30T06:00:28.820Z,94.4
2022-08-30T06:01:28.664Z,95
2022-08-30T06:02:28.625Z,93.9
2022-08-30T06:03:28.585Z,94
2022-08-30T06:04:28.588Z,94.2
2022-08-30T06:05:28.591Z,94.7
2022-08-30T06:07:28.649Z,97.2
2022-08-30T06:08:28.599Z,97.2
2022-08-30T06:09:28.686Z,95.8
2022-08-30T06:10:28.607Z,95.6
2022-08-30T06:11:28.580Z,93.8
2022-08-30T06:12:28.620Z,93.4
2022-08-30T06:13:28.624Z,93.5
2022-08-30T06:14:28.639Z,94.8
2022-08-30T06:15:28.637Z,96.2
2022-08-30T06:16:28.699Z,95.6
2022-08-30T06:17:28.657Z,95.4
2022-08-30T06:18:28.937Z,95.5
2022-08-30T06:19:28.593Z,99
2022-08-30T06:20:28.711Z,100
2022-08-30T06:21:28.707Z,99.7
2022-08-30T06:22:28.684Z,98
2022-08-30T06:23:28.710Z,97.3
2022-08-30T06:24:53.677Z,98.4
2022-08-30T06:25:28.604Z,98.9
2022-08-30T06:26:28.634Z,96.4
2022-08-30T06:27:28.640Z,97.7
2022-08-30T06:28:28.645Z,96.4
2022-08-30T06:29:28.631Z,96.2
2022-08-30T06:30:28.639Z,94.7
2022-08-30T06:31:28.698Z,94.9
2022-08-30T06:32:28.598Z,96.6
2022-08-30T06:33:28.586Z,98
2022-08-30T06:34:28.652Z,95.5
2022-08-30T06:35:28.669Z,94.6
2022-08-30T06:36:28.609Z,92.8
2022-08-30T06:37:29.817Z,92.1
2022-08-30T06:38:28.595Z,92.3
2022-08-30T06:39:28.697Z,90.7
2022-08-30T06:40:28.774Z,89.5
2022-08-30T06:41:28.711Z,90.7
2022-08-30T06:42:28.619Z,88.5
2022-08-30T06:43:28.623Z,86.4
2022-08-30T06:44:30.630Z,86.4
2022-08-30T06:45:28.618Z,88.2
2022-08-30T06:46:28.769Z,89
2022-08-30T06:47:28.648Z,87.3
2022-08-30T06:48:28.750Z,88.7
2022-08-30T06:49:28.670Z,86.6
2022-08-30T06:50:28.674Z,86.6
2022-08-30T06:51:28.677Z,85.9
2022-08-30T06:52:29.691Z,86.3
2022-08-30T06:53:28.782Z,85
2022-08-30T06:54:28.682Z,84.5
2022-08-30T06:55:28.716Z,84.4
2022-08-30T06:56:28.605Z,84.4
2022-08-30T06:57:28.765Z,83.4
2022-08-30T06:58:28.595Z,82.9
2022-08-30T06:59:28.801Z,83.2
2022-08-30T07:00:28.758Z,82.8
2022-08-30T07:01:28.704Z,82
2022-08-30T07:02:28.800Z,81.4
2022-08-30T07:03:28.629Z,78.4
2022-08-30T07:04:28.603Z,79.8
2022-08-30T07:05:28.598Z,80.1
2022-08-30T07:06:28.623Z,78.8
2022-08-30T07:07:28.603Z,77
2022-08-30T07:08:28.596Z,78.5
2022-08-30T07:09:28.787Z,79
2022-08-30T07:10:28.899Z,79
2022-08-30T07:11:28.796Z,77
2022-08-30T07:12:28.621Z,76.3
2022-08-30T07:13:28.605Z,75.7
2022-08-30T07:14:28.608Z,74.7
2022-08-30T07:15:28.630Z,76.5
2022-08-30T07:16:28.734Z,77.3
2022-08-30T07:17:31.295Z,77.5
2022-08-30T07:18:28.609Z,74.6
2022-08-30T07:19:28.752Z,74.2
2022-08-30T07:20:40.543Z,73
2022-08-30T07:21:28.603Z,73.2
2022-08-30T07:22:28.758Z,72.4
2022-08-30T07:23:28.687Z,72
2022-08-30T07:24:28.665Z,71.9
2022-08-30T07:25:28.597Z,71.7
2022-08-30T07:26:28.686Z,71.5
2022-08-30T07:27:28.684Z,72.2
2022-08-30T07:28:28.702Z,73.2
2022-08-30T07:29:28.703Z,71.5
2022-08-30T07:30:28.711Z,73.8
2022-08-30T07:31:28.623Z,70.5
2022-08-30T07:32:28.617Z,70.6
2022-08-30T07:33:28.627Z,72.9
2022-08-30T07:34:28.641Z,72.9
2022-08-30T07:35:28.602Z,72
2022-08-30T07:36:28.675Z,67.7
2022-08-30T07:37:28.655Z,67.2
2022-08-30T07:38:28.625Z,66.7
2022-08-30T07:39:28.630Z,67.3
2022-08-30T07:40:28.737Z,68
2022-08-30T07:41:28.727Z,69.1
2022-08-30T07:42:28.688Z,70.5
2022-08-30T07:43:28.701Z,70.1
2022-08-30T07:44:28.701Z,68.9
2022-08-30T07:45:28.607Z,66.3
2022-08-30T07:46:28.808Z,67
2022-08-30T07:47:28.610Z,67.5
2022-08-30T07:48:28.612Z,67
2022-08-30T07:49:28.634Z,65
2022-08-30T07:50:28.739Z,62.2
2022-08-30T07:51:30.660Z,61.4
2022-08-30T07:52:28.729Z,61.3
2022-08-30T07:53:28.656Z,62.1
2022-08-30T07:54:28.691Z,61.6
2022-08-30T07:55:28.657Z,61.8
2022-08-30T07:56:28.676Z,62.2
2022-08-30T07:57:28.784Z,61.3
2022-08-30T07:58:28.684Z,61.6
2022-08-30T07:59:30.859Z,62.1
2022-08-30T08:00:28.602Z,63
2022-08-30T08:01:28.796Z,64.4
2022-08-30T08:02:28.765Z,63.6
2022-08-30T08:03:28.726Z,62.7
2022-08-30T08:04:28.728Z,62.9
2022-08-30T08:05:28.620Z,61.3
2022-08-30T08:06:29.755Z,60.8
2022-08-30T08:07:28.639Z,59.9
2022-08-30T08:08:28.615Z,60.2
2022-08-30T08:09:28.662Z,60.4
2022-08-30T08:10:28.766Z,61.3
2022-08-30T08:11:32.942Z,61.3
2022-08-30T08:12:28.612Z,61.6
2022-08-30T08:13:32.775Z,60.8
2022-08-30T08:14:28.700Z,60.4
2022-08-30T08:15:28.863Z,61.1
2022-08-30T08:16:28.701Z,62.9
2022-08-30T08:17:28.700Z,62.8
2022-08-30T08:18:28.705Z,63.4
2022-08-30T08:19:28.618Z,64.6
2022-08-30T08:20:28.614Z,64.4
2022-08-30T08:21:28.639Z,65.1
2022-08-30T08:22:28.639Z,65.4
2022-08-30T08:23:28.645Z,62.2
2022-08-30T08:24:28.673Z,62.5
2022-08-30T08:25:28.647Z,63.2
2022-08-30T08:26:28.667Z,61.9
2022-08-30T08:27:28.614Z,62.1
2022-08-30T08:28:28.670Z,61.8
2022-08-30T08:29:28.684Z,61.5
2022-08-30T08:30:28.685Z,60.6
2022-08-30T08:31:33.285Z,58.9
2022-08-30T08:32:28.664Z,58
2022-08-30T08:33:28.707Z,58
2022-08-30T08:34:28.745Z,58.9
2022-08-30T08:35:28.618Z,59.3
2022-08-30T08:36:28.725Z,59.9
2022-08-30T08:37:28.729Z,58.2
2022-08-30T08:38:28.740Z,57.7
2022-08-30T08:39:28.659Z,57.4
2022-08-30T08:40:28.829Z,57
2022-08-30T08:41:28.650Z,56
2022-08-30T08:42:28.659Z,56
2022-08-30T08:43:28.664Z,55.8
2022-08-30T08:44:33.799Z,56.2
2022-08-30T08:45:28.777Z,54.3
2022-08-30T08:46:28.700Z,55.4
2022-08-30T08:47:28.737Z,55.3
2022-08-30T08:48:32.067Z,53.9
2022-08-30T08:49:28.706Z,54.5
2022-08-30T08:50:28.709Z,53.4
2022-08-30T08:51:28.712Z,52.6
2022-08-30T08:52:28.725Z,52
2022-08-30T08:53:46.193Z,52
2022-08-30T08:54:28.653Z,50.2
2022-08-30T08:55:28.680Z,50.1
2022-08-30T08:56:28.646Z,50.2
2022-08-30T08:57:28.656Z,50.2
2022-08-30T08:58:30.648Z,50.2
2022-08-30T08:59:28.814Z,49.2
2022-08-30T09:00:28.616Z,48.4
2022-08-30T09:01:28.763Z,47.4
2022-08-30T09:02:28.688Z,47.3
2022-08-30T09:03:28.682Z,47.6
2022-08-30T09:04:28.701Z,46.1
2022-08-30T09:05:28.809Z,46.1
2022-08-30T09:06:28.731Z,46.5
2022-08-30T09:07:28.730Z,44.7
2022-08-30T09:08:28.625Z,45
2022-08-30T09:09:28.736Z,45.3
2022-08-30T09:10:49.262Z,46.4
2022-08-30T09:11:28.636Z,45
2022-08-30T09:12:28.677Z,43.7
2022-08-30T09:13:28.762Z,45
2022-08-30T09:14:30.308Z,44.8
2022-08-30T09:15:28.783Z,44.2
2022-08-30T09:16:28.827Z,44.3
2022-08-30T09:17:28.683Z,43.6
2022-08-30T09:18:28.689Z,43.5
2022-08-30T09:19:28.805Z,43.1
2022-08-30T09:20:28.702Z,43.9
2022-08-30T09:21:28.705Z,43
2022-08-30T09:22:29.233Z,43.4
2022-08-30T09:23:28.630Z,42.9
2022-08-30T09:24:28.691Z,43.3
2022-08-30T09:25:28.654Z,40.4
2022-08-30T09:26:28.744Z,40.6
2022-08-30T09:27:28.644Z,41.9
2022-08-30T09:28:28.933Z,43.4
2022-08-30T09:29:28.867Z,42.6
2022-08-30T09:30:28.884Z,43.7
2022-08-30T09:31:29.173Z,44.7
2022-08-30T09:32:28.693Z,44.7
2022-08-30T09:33:29.298Z,45.7
2022-08-30T09:34:28.771Z,44.8
2022-08-30T09:35:28.702Z,43.6
2022-08-30T09:36:28.713Z,41.6
2022-08-30T09:37:29.119Z,40.3
2022-08-30T09:38:28.956Z,40.2
2022-08-30T09:39:28.640Z,39.5
2022-08-30T09:40:28.953Z,39.5
2022-08-30T09:41:28.639Z,39.8
2022-08-30T09:42:29.047Z,38
2022-08-30T09:43:28.676Z,38.3
2022-08-30T09:44:28.665Z,37.2
2022-08-30T09:45:28.662Z,37.9
2022-08-30T09:46:28.659Z,37.2
2022-08-30T09:47:28.688Z,38
2022-08-30T09:48:28.644Z,38.1
2022-08-30T09:49:28.679Z,36.9
2022-08-30T09:50:28.699Z,38.3
2022-08-30T09:51:28.694Z,37.9
2022-08-30T09:52:28.698Z,38.6
2022-08-30T09:53:28.721Z,38.6
2022-08-30T09:54:31.082Z,38.9
2022-08-30T09:55:28.640Z,38.7
2022-08-30T09:56:28.725Z,39.4
2022-08-30T09:57:33.938Z,40
2022-08-30T09:58:30.023Z,39.3
2022-08-30T09:59:28.646Z,38.3
2022-08-30T10:00:28.755Z,37.5
2022-08-30T10:01:28.826Z,37
2022-08-30T10:02:28.668Z,36.7
2022-08-30T10:03:36.155Z,36.3
2022-08-30T10:04:30.942Z,36.1
2022-08-30T10:05:30.692Z,35.9
2022-08-30T10:06:28.657Z,36.4
2022-08-30T10:07:29.040Z,36.5
2022-08-30T10:08:28.819Z,37.1
2022-08-30T10:09:28.730Z,35.6
2022-08-30T10:10:28.664Z,35
2022-08-30T10:11:28.776Z,35
2022-08-30T10:12:28.678Z,35.5
2022-08-30T10:13:28.761Z,35.6
2022-08-30T10:14:28.843Z,35.3
2022-08-30T10:15:28.748Z,35.7
2022-08-30T10:16:28.654Z,34.9
2022-08-30T10:17:28.654Z,35.4
2022-08-30T10:18:28.658Z,35.1
2022-08-30T10:19:28.702Z,34.9
2022-08-30T10:20:28.642Z,34.7
2022-08-30T10:21:28.779Z,35.5
2022-08-30T10:22:28.690Z,35.3
2022-08-30T10:23:28.688Z,35.5
2022-08-30T10:24:32.789Z,36.7
2022-08-30T10:25:28.648Z,35.9
2022-08-30T10:26:30.073Z,35.9
2022-08-30T10:27:28.753Z,35.6
2022-08-30T10:28:28.733Z,35.3
2022-08-30T10:29:28.750Z,34.8
2022-08-30T10:30:28.711Z,34.2
2022-08-30T10:31:28.984Z,34.5
2022-08-30T10:32:28.816Z,35.3
2022-08-30T10:33:31.711Z,35.7
2022-08-30T10:34:28.673Z,36.5
2022-08-30T10:35:29.040Z,36.9
2022-08-30T10:36:28.685Z,37.4
2022-08-30T10:37:28.770Z,37.1
2022-08-30T10:38:28.651Z,36.9
2022-08-30T10:39:30.926Z,37.9
2022-08-30T10:40:28.763Z,37.8
2022-08-30T10:41:28.736Z,37.5
2022-08-30T10:42:28.819Z,37.9
2022-08-30T10:43:28.734Z,37.9
2022-08-30T10:44:28.658Z,36.9
2022-08-30T10:45:28.649Z,38.1
2022-08-30T10:46:28.755Z,38.4
2022-08-30T10:47:28.767Z,37.8
2022-08-30T10:48:28.829Z,38
2022-08-30T10:49:28.805Z,37.3
2022-08-30T10:50:28.683Z,37.9
2022-08-30T10:51:28.669Z,37.3
2022-08-30T10:52:28.686Z,37.5
2022-08-30T10:53:28.745Z,36.7
2022-08-30T10:54:28.754Z,37
2022-08-30T10:55:28.795Z,37.7
2022-08-30T10:56:28.812Z,38.7
2022-08-30T10:57:28.712Z,37.5
2022-08-30T10:58:28.671Z,38.5
2022-08-30T10:59:28.750Z,38.7
2022-08-30T11:00:28.732Z,38.4
2022-08-30T11:01:28.912Z,38.8
2022-08-30T11:02:28.710Z,36.5
2022-08-30T11:03:28.784Z,36.1
2022-08-30T11:04:28.762Z,35.9
2022-08-30T11:05:28.759Z,35.8
2022-08-30T11:06:29.389Z,35.5
2022-08-30T11:07:28.667Z,35.6
2022-08-30T11:08:28.665Z,35.4
2022-08-30T11:09:28.789Z,34.8
2022-08-30T11:10:28.683Z,34.5
2022-08-30T11:11:28.665Z,34.2
2022-08-30T11:12:30.870Z,34.6
2022-08-30T11:13:28.716Z,34.8
2022-08-30T11:14:28.710Z,35.2
2022-08-30T11:15:28.680Z,35.4
2022-08-30T11:16:28.832Z,35.6
2022-08-30T11:17:28.672Z,35.4
2022-08-30T11:18:28.738Z,35.9
2022-08-30T11:19:32.124Z,35.3
2022-08-30T11:20:28.665Z,34.8
2022-08-30T11:21:28.767Z,34.5
2022-08-30T11:22:28.665Z,34.8
2022-08-30T11:23:30.521Z,34.4
2022-08-30T11:24:28.680Z,33.8
2022-08-30T11:25:28.716Z,33.2
2022-08-30T11:26:28.674Z,33.1
2022-08-30T11:27:28.672Z,33.1
2022-08-30T11:28:28.704Z,33.5
2022-08-30T11:29:28.672Z,33.2
2022-08-30T11:30:28.756Z,33.1
2022-08-30T11:31:28.735Z,32.7
2022-08-30T11:32:28.679Z,34.2
2022-08-30T11:33:28.733Z,32.5
2022-08-30T11:34:28.657Z,33.7
2022-08-30T11:35:28.745Z,33.1
2022-08-30T11:36:28.670Z,33.9
2022-08-30T11:37:28.719Z,33.2
2022-08-30T11:38:28.664Z,33.4
2022-08-30T11:39:28.798Z,33.3
2022-08-30T11:40:28.742Z,34.5
2022-08-30T11:41:28.900Z,34.9
2022-08-30T11:42:29.265Z,35.2
2022-08-30T11:43:29.190Z,35.4
2022-08-30T11:44:28.711Z,34.9
2022-08-30T11:45:28.842Z,33.8
2022-08-30T11:46:28.879Z,33.6
2022-08-30T11:47:28.694Z,33.8
2022-08-30T11:48:28.663Z,34.3
2022-08-30T11:49:28.668Z,34
2022-08-30T11:50:28.714Z,34.2
2022-08-30T11:51:28.748Z,34
2022-08-30T11:52:28.862Z,33.4
2022-08-30T11:53:28.689Z,31.9
2022-08-30T11:54:28.774Z,32.1
2022-08-30T11:55:28.729Z,32.4
2022-08-30T11:56:28.791Z,32.3
2022-08-30T11:57:28.756Z,31.6
2022-08-30T11:58:28.685Z,31.3
2022-08-30T11:59:28.677Z,31.3
2022-08-30T12:00:28.770Z,30
2022-08-30T12:01:50.363Z,30
2022-08-30T12:02:29.021Z,29.4
2022-08-30T12:03:28.832Z,30.3
2022-08-30T12:04:28.762Z,30.7
2022-08-30T12:05:28.733Z,30.2
2022-08-30T12:06:28.746Z,29.6
2022-08-30T12:07:28.744Z,29.9
2022-08-30T12:08:28.697Z,28.2
2022-08-30T12:09:28.752Z,29.9
2022-08-30T12:10:28.777Z,29.7
2022-08-30T12:11:28.749Z,28.5
2022-08-30T12:12:28.779Z,28.9
2022-08-30T12:13:28.783Z,29
2022-08-30T12:14:28.681Z,28.6
2022-08-30T12:15:28.699Z,29
2022-08-30T12:16:28.734Z,28.3
2022-08-30T12:17:28.713Z,28.3
2022-08-30T12:18:28.750Z,28.2
2022-08-30T12:19:30.702Z,27.1
2022-08-30T12:20:28.747Z,26.9
2022-08-30T12:21:28.734Z,27.3
2022-08-30T12:22:28.744Z,27.9
2022-08-30T12:23:28.696Z,27.7
2022-08-30T12:24:28.727Z,28.2
2022-08-30T12:25:28.770Z,28.1
2022-08-30T12:26:28.798Z,27.5
2022-08-30T12:27:32.567Z,26.4
2022-08-30T12:28:28.696Z,26.8
2022-08-30T12:29:29.183Z,26.9
2022-08-30T12:30:28.697Z,27.5
2022-08-30T12:31:28.886Z,26.5
2022-08-30T12:32:28.742Z,26.5
2022-08-30T12:33:29.558Z,27.4
2022-08-30T12:34:28.672Z,27.4
2022-08-30T12:35:28.689Z,27.1
2022-08-30T12:36:28.688Z,27.5
2022-08-30T12:37:28.697Z,28.1
2022-08-30T12:38:28.743Z,28.3
2022-08-30T12:39:28.753Z,27.6
2022-08-30T12:40:28.805Z,27.8
2022-08-30T12:41:28.690Z,27.5
2022-08-30T12:42:28.689Z,27.9
2022-08-30T12:43:28.695Z,28.6
2022-08-30T12:44:28.781Z,29.4
2022-08-30T12:45:28.798Z,30.5
2022-08-30T12:46:28.745Z,30.4
2022-08-30T12:47:28.812Z,29.8
2022-08-30T12:48:28.702Z,30.5
2022-08-30T12:49:28.692Z,31.1
2022-08-30T12:50:28.828Z,31.2
2022-08-30T12:51:28.709Z,30.9
2022-08-30T12:52:28.837Z,30.2
2022-08-30T12:53:28.777Z,29
2022-08-30T12:54:28.708Z,28
2022-08-30T12:55:28.760Z,27.2
2022-08-30T12:56:49.252Z,26.8
2022-08-30T12:57:35.316Z,26.4
2022-08-30T12:58:28.726Z,25.3
2022-08-30T12:59:28.884Z,25
2022-08-30T13:00:28.997Z,25
2022-08-30T13:01:28.954Z,24.8
2022-08-30T13:02:28.728Z,24.5
2022-08-30T13:03:30.097Z,23.5
2022-08-30T13:04:28.813Z,24.4
2022-08-30T13:05:28.697Z,25
2022-08-30T13:06:33.791Z,26
2022-08-30T13:07:28.823Z,27.2
2022-08-30T13:08:28.807Z,27.6
2022-08-30T13:09:28.720Z,28.9
2022-08-30T13:10:28.741Z,28.4
2022-08-30T13:11:29.404Z,26.4
2022-08-30T13:12:28.730Z,26
2022-08-30T13:13:28.832Z,25.8
2022-08-30T13:14:28.782Z,24.5
2022-08-30T13:15:28.784Z,24.5
2022-08-30T13:16:29.689Z,24.2
2022-08-30T13:17:28.783Z,23.8
2022-08-30T13:18:28.895Z,24.5
2022-08-30T13:19:28.777Z,24.2
2022-08-30T13:20:28.798Z,23
2022-08-30T13:21:29.100Z,22.5
2022-08-30T13:22:28.988Z,22.2
2022-08-30T13:23:28.978Z,23.9
2022-08-30T13:24:29.167Z,24.1
2022-08-30T13:25:28.987Z,24.6